Appomattox, Virginia
Current Conditions -  °F | °C
As of 5:15 AM on Sunday 25 Jan 2015 (Local Time) from K0V4 Reporting Station
Clear Clear  
Wind Chill: -1°   Ceiling: Unl
Heat Index:   Visibility: 10mi
Dew Point: -1°   Wind: 7mph
Humidity: 80%   Direction: 230°SW
Pressure: 29.86"   Gusts: NA
Location:  37.36°N, 78.83°W
Report Text: K0V4 251015Z AUTO 23006KT 10SM CLR 02/M01 A2986 RMK AO1 T00211011
Loading
Personal Weather Stations






























Interactive Weather Map New forecast layout! Learn more

10-Day Weather Forecast

Advertisements
Track Severe Weather on mobile